createdAt,value
2023-02-03T00:00:09.163Z,85.36
2023-02-03T00:02:35.856Z,84.88
2023-02-03T00:05:03.069Z,85.82
2023-02-03T00:07:32.035Z,85.39
2023-02-03T00:10:01.674Z,85.39
2023-02-03T00:12:31.235Z,85.86
2023-02-03T00:14:57.753Z,86.19
2023-02-03T00:17:24.198Z,86.76
2023-02-03T00:19:50.681Z,87.71
2023-02-03T00:22:17.138Z,86.99
2023-02-03T00:24:43.565Z,87.35
2023-02-03T00:27:10.029Z,88.00
2023-02-03T00:29:36.482Z,87.91
2023-02-03T00:32:02.930Z,87.13
2023-02-03T00:34:30.323Z,86.75
2023-02-03T00:36:57.431Z,87.91
2023-02-03T00:39:23.907Z,87.09
2023-02-03T00:41:50.432Z,86.88
2023-02-03T00:44:16.909Z,87.18
2023-02-03T00:46:43.321Z,87.22
2023-02-03T00:49:09.734Z,87.15
2023-02-03T00:51:36.104Z,87.45
2023-02-03T00:54:02.659Z,88.10
2023-02-03T00:56:29.298Z,88.11
2023-02-03T00:58:55.789Z,87.92
2023-02-03T01:01:22.315Z,87.76
2023-02-03T01:03:48.882Z,87.32
2023-02-03T01:06:20.688Z,86.49
2023-02-03T01:08:47.886Z,86.85
2023-02-03T01:11:23.033Z,87.59
2023-02-03T01:13:50.663Z,87.96
2023-02-03T01:16:19.988Z,87.44
2023-02-03T01:18:46.808Z,88.31
2023-02-03T01:21:19.849Z,88.08
2023-02-03T01:23:46.624Z,88.45
2023-02-03T01:26:15.622Z,88.26
2023-02-03T01:28:42.725Z,88.19
2023-02-03T01:31:22.204Z,87.79
2023-02-03T01:33:48.896Z,87.58
2023-02-03T01:36:17.085Z,86.87
2023-02-03T01:38:44.758Z,88.62
2023-02-03T01:41:17.270Z,89.47
2023-02-03T01:43:49.583Z,90.30
2023-02-03T01:46:25.828Z,89.46
2023-02-03T01:48:55.439Z,89.31
2023-02-03T01:51:22.866Z,89.12
2023-02-03T01:53:53.264Z,88.95
2023-02-03T01:56:20.831Z,88.73
2023-02-03T01:58:49.215Z,88.16
2023-02-03T02:01:17.537Z,88.70
2023-02-03T02:03:52.840Z,88.73
2023-02-03T02:06:19.284Z,88.68
2023-02-03T02:08:50.240Z,88.30
2023-02-03T02:11:18.524Z,87.59
2023-02-03T02:13:46.126Z,87.33
2023-02-03T02:16:38.696Z,87.33
2023-02-03T02:19:27.557Z,87.91
2023-02-03T02:22:17.551Z,87.50
2023-02-03T02:25:14.529Z,86.91
2023-02-03T02:28:30.144Z,86.37
2023-02-03T02:31:18.705Z,86.66
2023-02-03T02:34:07.449Z,86.63
2023-02-03T02:36:52.168Z,87.15
2023-02-03T02:39:30.151Z,86.70
2023-02-03T02:42:01.614Z,86.43
2023-02-03T02:44:39.291Z,86.28
2023-02-03T02:47:16.151Z,86.07
2023-02-03T02:49:48.995Z,84.92
2023-02-03T02:52:18.261Z,85.92
2023-02-03T02:54:51.316Z,85.30
2023-02-03T02:57:20.129Z,85.55
2023-02-03T02:59:47.960Z,85.78
2023-02-03T03:02:14.817Z,85.51
2023-02-03T03:04:43.784Z,86.06
2023-02-03T03:07:18.566Z,86.12
2023-02-03T03:09:52.426Z,86.04
2023-02-03T03:12:24.880Z,85.56
2023-02-03T03:15:01.561Z,86.29
2023-02-03T03:17:50.237Z,86.24
2023-02-03T03:20:25.000Z,86.66
2023-02-03T03:22:58.630Z,85.95
2023-02-03T03:25:31.911Z,85.98
2023-02-03T03:28:05.883Z,85.66
2023-02-03T03:30:36.026Z,85.59
2023-02-03T03:33:03.566Z,85.47
2023-02-03T03:36:03.317Z,85.35
2023-02-03T03:38:40.987Z,85.13
2023-02-03T03:41:16.846Z,84.45
2023-02-03T03:43:47.258Z,84.61
2023-02-03T03:46:27.197Z,85.07
2023-02-03T03:49:04.000Z,85.08
2023-02-03T03:52:03.164Z,84.94
2023-02-03T03:54:32.203Z,84.65
2023-02-03T03:57:15.138Z,83.70
2023-02-03T03:59:46.547Z,83.64
2023-02-03T04:02:14.240Z,83.11
2023-02-03T04:04:42.512Z,80.92
2023-02-03T04:07:09.020Z,80.97
2023-02-03T04:09:36.908Z,80.61
2023-02-03T04:12:06.313Z,80.49
2023-02-03T04:14:39.692Z,79.80
2023-02-03T04:17:06.347Z,79.86
2023-02-03T04:19:32.793Z,79.12
2023-02-03T04:21:59.229Z,79.96
2023-02-03T04:24:32.139Z,80.12
2023-02-03T04:26:58.598Z,80.70
2023-02-03T04:29:25.104Z,80.84
2023-02-03T04:31:51.616Z,80.98
2023-02-03T04:34:18.036Z,80.47
2023-02-03T04:36:44.422Z,81.89
2023-02-03T04:39:10.953Z,81.93
2023-02-03T04:41:37.447Z,82.59
2023-02-03T04:44:04.070Z,83.95
2023-02-03T04:46:30.513Z,84.75
2023-02-03T04:48:57.443Z,85.28
2023-02-03T04:51:23.861Z,85.93
2023-02-03T04:53:50.267Z,85.78
2023-02-03T04:56:16.728Z,85.47
2023-02-03T04:58:43.184Z,86.87
2023-02-03T05:01:10.280Z,86.45
2023-02-03T05:03:37.302Z,86.42
2023-02-03T05:06:05.416Z,86.91
2023-02-03T05:08:32.183Z,87.42
2023-02-03T05:11:00.682Z,87.14
2023-02-03T05:13:28.728Z,86.43
2023-02-03T05:15:55.110Z,86.72
2023-02-03T05:18:21.540Z,86.05
2023-02-03T05:20:48.079Z,85.99
2023-02-03T05:23:14.549Z,84.90
2023-02-03T05:25:41.047Z,85.25
2023-02-03T05:28:07.502Z,85.30
2023-02-03T05:30:34.023Z,85.29
2023-02-03T05:33:00.487Z,85.03
2023-02-03T05:35:26.972Z,84.28
2023-02-03T05:37:53.450Z,84.27
2023-02-03T05:40:38.293Z,84.06
2023-02-03T05:43:05.003Z,83.62
2023-02-03T05:45:31.822Z,83.99
2023-02-03T05:47:58.281Z,84.46
2023-02-03T05:50:27.219Z,84.15
2023-02-03T05:52:53.834Z,83.58
2023-02-03T05:55:20.287Z,83.73
2023-02-03T05:57:46.678Z,83.80
2023-02-03T06:00:14.773Z,84.29
2023-02-03T06:02:41.244Z,83.12
2023-02-03T06:05:08.424Z,82.82
2023-02-03T06:07:35.166Z,82.95
2023-02-03T06:10:01.653Z,82.97
2023-02-03T06:12:29.363Z,82.65
2023-02-03T06:14:55.892Z,82.87
2023-02-03T06:17:22.257Z,82.96
2023-02-03T06:19:48.647Z,82.72
2023-02-03T06:22:15.051Z,82.17
2023-02-03T06:24:41.509Z,81.73
2023-02-03T06:27:08.006Z,82.53
2023-02-03T06:29:34.461Z,82.59
2023-02-03T06:32:01.110Z,81.61
2023-02-03T06:34:27.566Z,82.34
2023-02-03T06:36:54.052Z,82.28
2023-02-03T06:39:20.619Z,81.79
2023-02-03T06:41:47.254Z,81.40
2023-02-03T06:44:13.690Z,81.87
2023-02-03T06:46:40.234Z,81.50
2023-02-03T06:49:06.644Z,81.09
2023-02-03T06:51:33.065Z,81.71
2023-02-03T06:54:01.195Z,81.90
2023-02-03T06:56:27.646Z,81.21
2023-02-03T06:58:54.224Z,81.77
2023-02-03T07:01:21.235Z,82.17
2023-02-03T07:03:47.858Z,81.57
2023-02-03T07:06:14.559Z,81.72
2023-02-03T07:08:41.630Z,81.46
2023-02-03T07:11:08.406Z,80.93
2023-02-03T07:13:34.996Z,80.92
2023-02-03T07:16:01.525Z,80.98
2023-02-03T07:18:46.430Z,80.90
2023-02-03T07:21:15.671Z,81.02
2023-02-03T07:23:42.133Z,80.95
2023-02-03T07:26:10.611Z,80.15
2023-02-03T07:28:37.044Z,79.69
2023-02-03T07:31:04.776Z,80.53
2023-02-03T07:33:31.968Z,80.76
2023-02-03T07:35:59.832Z,80.37
2023-02-03T07:38:27.992Z,80.23
2023-02-03T07:40:54.658Z,80.05
2023-02-03T07:43:21.360Z,79.50
2023-02-03T07:45:47.804Z,79.39
2023-02-03T07:48:14.787Z,79.58
2023-02-03T07:50:41.225Z,79.73
2023-02-03T07:53:10.992Z,78.86
2023-02-03T07:55:40.800Z,78.82
2023-02-03T07:58:07.491Z,78.45
2023-02-03T08:00:34.407Z,79.01
2023-02-03T08:03:00.819Z,78.44
2023-02-03T08:05:27.386Z,79.27
2023-02-03T08:07:54.004Z,78.80
2023-02-03T08:10:20.469Z,78.84
2023-02-03T08:12:47.113Z,78.83
2023-02-03T08:15:14.576Z,78.63
2023-02-03T08:17:42.093Z,79.35
2023-02-03T08:20:09.545Z,79.16
2023-02-03T08:22:36.243Z,79.22
2023-02-03T08:25:06.813Z,78.10
2023-02-03T08:27:33.266Z,77.86
2023-02-03T08:30:00.102Z,78.42
2023-02-03T08:32:28.023Z,78.00
2023-02-03T08:34:54.520Z,78.16
2023-02-03T08:37:24.609Z,78.08
2023-02-03T08:39:52.098Z,78.22
2023-02-03T08:42:19.022Z,78.25
2023-02-03T08:44:45.716Z,77.74
2023-02-03T08:47:12.692Z,77.40
2023-02-03T08:49:39.688Z,77.42
2023-02-03T08:52:08.034Z,76.86
2023-02-03T08:54:34.865Z,76.98
2023-02-03T08:57:01.401Z,76.83
2023-02-03T08:59:28.215Z,77.12
2023-02-03T09:01:54.975Z,76.34
2023-02-03T09:04:24.791Z,76.22
2023-02-03T09:06:54.933Z,76.28
2023-02-03T09:09:22.225Z,76.00
2023-02-03T09:11:48.971Z,75.84
2023-02-03T09:14:15.445Z,75.86
2023-02-03T09:16:42.024Z,75.35
2023-02-03T09:19:08.588Z,74.41
2023-02-03T09:21:37.462Z,74.31
2023-02-03T09:24:11.037Z,74.69
2023-02-03T09:26:37.503Z,74.21
2023-02-03T09:29:04.507Z,74.00
2023-02-03T09:31:30.988Z,74.39
2023-02-03T09:33:59.060Z,73.65
2023-02-03T09:36:26.151Z,73.72
2023-02-03T09:38:52.767Z,73.90
2023-02-03T09:41:50.325Z,73.81
2023-02-03T09:44:33.327Z,73.53
2023-02-03T09:47:04.721Z,74.33
2023-02-03T09:49:59.097Z,74.18
2023-02-03T09:52:39.717Z,73.75
2023-02-03T09:55:46.280Z,75.59
2023-02-03T09:58:15.728Z,74.98
2023-02-03T10:00:57.214Z,75.06
2023-02-03T10:03:41.931Z,74.29
2023-02-03T10:06:36.840Z,75.30
2023-02-03T10:09:37.630Z,75.00
2023-02-03T10:12:30.439Z,74.85
2023-02-03T10:15:21.684Z,74.68
2023-02-03T10:17:57.338Z,76.00
2023-02-03T10:20:37.251Z,76.93
2023-02-03T10:23:11.890Z,76.97
2023-02-03T10:25:50.819Z,77.49
2023-02-03T10:28:20.374Z,77.79
2023-02-03T10:31:01.065Z,77.00
2023-02-03T10:33:30.365Z,78.05
2023-02-03T10:36:15.665Z,76.55
2023-02-03T10:39:03.612Z,77.92
2023-02-03T10:41:31.817Z,80.27
2023-02-03T10:44:02.273Z,81.43
2023-02-03T10:46:32.245Z,82.63
2023-02-03T10:48:59.519Z,82.64
2023-02-03T10:51:39.073Z,82.80
2023-02-03T10:54:05.697Z,82.99
2023-02-03T10:56:37.351Z,85.61
2023-02-03T10:59:05.045Z,86.12
2023-02-03T11:01:49.967Z,86.63
2023-02-03T11:04:28.645Z,86.04
2023-02-03T11:07:05.983Z,86.72
2023-02-03T11:09:41.360Z,87.52
2023-02-03T11:12:13.297Z,85.72
2023-02-03T11:14:44.144Z,86.83
2023-02-03T11:17:36.413Z,86.31
2023-02-03T11:20:14.540Z,84.09
2023-02-03T11:22:43.327Z,85.04
2023-02-03T11:25:19.003Z,84.80
2023-02-03T11:27:46.160Z,87.10
2023-02-03T11:30:27.423Z,86.81
2023-02-03T11:32:54.258Z,89.63
2023-02-03T11:35:26.391Z,90.26
2023-02-03T11:37:58.560Z,89.59
2023-02-03T11:40:33.963Z,90.70
2023-02-03T11:43:03.822Z,90.73
2023-02-03T11:45:41.743Z,91.43
2023-02-03T11:48:11.207Z,92.33
2023-02-03T11:50:40.947Z,93.32
2023-02-03T11:53:23.817Z,93.10
2023-02-03T11:56:03.483Z,93.23
2023-02-03T11:58:35.910Z,93.51
2023-02-03T12:01:34.343Z,92.58
2023-02-03T12:04:18.998Z,94.08
2023-02-03T12:07:03.696Z,94.37
2023-02-03T12:09:48.474Z,94.68
2023-02-03T12:12:23.818Z,93.90
2023-02-03T12:15:15.257Z,93.55
2023-02-03T12:17:56.869Z,93.86
2023-02-03T12:20:40.642Z,93.89
2023-02-03T12:23:38.728Z,93.41
2023-02-03T12:26:21.277Z,94.36
2023-02-03T12:29:06.122Z,93.36
2023-02-03T12:31:40.644Z,95.08
2023-02-03T12:34:18.163Z,93.51
2023-02-03T12:37:06.615Z,92.91
2023-02-03T12:39:38.943Z,94.07
2023-02-03T12:42:28.959Z,95.04
2023-02-03T12:45:06.057Z,96.15
2023-02-03T12:47:47.874Z,96.25
2023-02-03T12:50:21.644Z,97.12
2023-02-03T12:52:55.908Z,95.86
2023-02-03T12:55:33.247Z,95.30
2023-02-03T12:58:05.258Z,95.68
2023-02-03T13:00:47.785Z,95.87
2023-02-03T13:03:24.996Z,95.92
2023-02-03T13:06:09.261Z,95.69
2023-02-03T13:08:53.427Z,95.80
2023-02-03T13:11:43.945Z,95.60
2023-02-03T13:14:19.740Z,95.71
2023-02-03T13:16:53.632Z,96.69
2023-02-03T13:19:29.183Z,96.41
2023-02-03T13:21:55.667Z,95.51
2023-02-03T13:24:27.927Z,95.17
2023-02-03T13:27:14.095Z,94.66
2023-02-03T13:30:25.582Z,93.35
2023-02-03T13:33:07.200Z,93.64
2023-02-03T13:36:18.305Z,95.15
2023-02-03T13:39:12.299Z,96.11
2023-02-03T13:41:49.977Z,96.13
2023-02-03T13:44:21.268Z,95.93
2023-02-03T13:46:49.774Z,96.49
2023-02-03T13:49:27.896Z,97.28
2023-02-03T13:51:55.033Z,96.16
2023-02-03T13:54:37.832Z,96.06
2023-02-03T13:57:21.846Z,94.96
2023-02-03T13:59:49.681Z,96.07
2023-02-03T14:02:19.209Z,96.55
2023-02-03T14:04:45.750Z,95.15
2023-02-03T14:07:27.270Z,94.00
2023-02-03T14:10:16.758Z,94.83
2023-02-03T14:12:52.297Z,96.54
2023-02-03T14:15:32.119Z,96.20
2023-02-03T14:18:07.229Z,95.68
2023-02-03T14:20:43.214Z,96.16
2023-02-03T14:23:16.592Z,95.21
2023-02-03T14:25:46.361Z,94.58
2023-02-03T14:28:23.915Z,95.15
2023-02-03T14:31:31.543Z,94.54
2023-02-03T14:34:07.742Z,93.39
2023-02-03T14:36:40.278Z,94.22
2023-02-03T14:39:18.776Z,94.28
2023-02-03T14:42:07.728Z,94.04
2023-02-03T14:44:51.710Z,92.99
2023-02-03T14:47:48.620Z,92.20
2023-02-03T14:50:34.012Z,91.91
2023-02-03T14:53:30.642Z,92.93
2023-02-03T14:56:04.840Z,92.11
2023-02-03T14:58:36.688Z,92.48
2023-02-03T15:01:08.235Z,91.84
2023-02-03T15:03:35.447Z,92.96
2023-02-03T15:06:05.181Z,92.26
2023-02-03T15:08:36.642Z,92.54
2023-02-03T15:11:23.616Z,91.18
2023-02-03T15:13:50.458Z,90.71
2023-02-03T15:16:20.550Z,91.93
2023-02-03T15:18:54.301Z,91.39
2023-02-03T15:21:21.248Z,91.45
2023-02-03T15:23:49.359Z,91.80
2023-02-03T15:26:23.387Z,91.71
2023-02-03T15:29:01.602Z,91.99
2023-02-03T15:31:48.718Z,92.60
2023-02-03T15:34:42.222Z,93.79
2023-02-03T15:37:15.822Z,94.08
2023-02-03T15:40:01.659Z,94.32
2023-02-03T15:42:37.694Z,93.06
2023-02-03T15:45:22.902Z,93.88
2023-02-03T15:47:55.926Z,93.80
2023-02-03T15:50:32.856Z,93.81
2023-02-03T15:53:09.335Z,94.11
2023-02-03T15:55:43.659Z,94.90
2023-02-03T15:58:23.367Z,94.70
2023-02-03T16:00:53.708Z,94.66
2023-02-03T16:03:32.892Z,94.15
2023-02-03T16:06:27.445Z,94.09
2023-02-03T16:08:55.277Z,94.52
2023-02-03T16:11:30.966Z,93.88
2023-02-03T16:14:00.014Z,94.08
2023-02-03T16:16:35.208Z,93.38
2023-02-03T16:19:05.097Z,93.26
2023-02-03T16:21:50.560Z,93.48
2023-02-03T16:24:35.708Z,92.69
2023-02-03T16:27:20.389Z,93.90
2023-02-03T16:30:05.833Z,93.34
2023-02-03T16:32:51.191Z,93.07
2023-02-03T16:35:35.984Z,93.02
2023-02-03T16:38:35.022Z,93.36
2023-02-03T16:41:20.337Z,93.57
2023-02-03T16:44:05.100Z,93.72
2023-02-03T16:46:50.143Z,93.32
2023-02-03T16:49:35.192Z,94.31
2023-02-03T16:52:03.099Z,94.68
2023-02-03T16:54:29.562Z,93.90
2023-02-03T16:56:58.489Z,94.10
2023-02-03T16:59:25.308Z,94.33
2023-02-03T17:01:51.781Z,94.08
2023-02-03T17:04:18.230Z,95.25
2023-02-03T17:06:44.719Z,95.18
2023-02-03T17:09:11.188Z,94.64
2023-02-03T17:11:37.746Z,94.75
2023-02-03T17:14:04.446Z,94.22
2023-02-03T17:16:32.746Z,93.31
2023-02-03T17:18:59.216Z,93.77
2023-02-03T17:21:27.571Z,94.56
2023-02-03T17:23:54.195Z,94.50
2023-02-03T17:26:20.774Z,94.35
2023-02-03T17:28:47.241Z,91.09
2023-02-03T17:31:16.809Z,91.33
2023-02-03T17:33:43.785Z,90.18
2023-02-03T17:36:16.811Z,89.78
2023-02-03T17:55:09.970Z,85.60
2023-02-03T17:57:39.438Z,84.77
2023-02-03T18:00:06.785Z,83.57
2023-02-03T18:02:33.261Z,83.74
2023-02-03T18:04:59.798Z,83.29
2023-02-03T18:07:26.244Z,83.90
2023-02-03T18:09:52.653Z,83.47
2023-02-03T18:12:19.101Z,81.91
2023-02-03T18:14:45.511Z,82.22
2023-02-03T18:17:11.936Z,82.28
2023-02-03T18:19:39.019Z,81.35
2023-02-03T18:22:06.421Z,81.62
2023-02-03T18:24:32.966Z,81.50
2023-02-03T18:27:00.666Z,81.06
2023-02-03T18:29:28.429Z,80.78
2023-02-03T18:31:54.894Z,81.19
2023-02-03T18:34:21.367Z,79.50
2023-02-03T18:36:48.047Z,79.52
2023-02-03T18:39:15.090Z,79.39
2023-02-03T18:41:41.587Z,79.73
2023-02-03T18:44:08.182Z,79.92
2023-02-03T18:46:34.731Z,79.65
2023-02-03T18:49:01.267Z,80.10
2023-02-03T18:51:28.159Z,81.04
2023-02-03T18:53:59.293Z,81.38
2023-02-03T18:56:28.075Z,81.83
2023-02-03T18:58:54.560Z,81.35
2023-02-03T19:01:25.337Z,82.02
2023-02-03T19:03:52.101Z,80.53
2023-02-03T19:06:18.592Z,80.30
2023-02-03T19:08:45.678Z,81.55
2023-02-03T19:11:13.710Z,81.36
2023-02-03T19:13:41.161Z,80.78
2023-02-03T19:16:09.188Z,80.49
2023-02-03T19:18:36.238Z,80.53
2023-02-03T19:21:03.073Z,80.42
2023-02-03T19:23:29.658Z,80.86
2023-02-03T19:25:56.261Z,81.10
2023-02-03T19:28:30.435Z,81.46
2023-02-03T19:31:09.018Z,81.34
2023-02-03T19:33:38.386Z,81.95
2023-02-03T19:36:06.384Z,81.93
2023-02-03T19:38:32.887Z,82.15
2023-02-03T19:41:01.624Z,83.00
2023-02-03T19:43:29.705Z,82.92
2023-02-03T19:45:56.388Z,82.76
2023-02-03T19:48:22.754Z,82.61
2023-02-03T19:50:49.448Z,82.67
2023-02-03T19:53:17.582Z,82.92
2023-02-03T19:55:45.278Z,83.57
2023-02-03T19:58:12.849Z,84.61
2023-02-03T20:00:40.045Z,84.29
2023-02-03T20:03:06.759Z,84.15
2023-02-03T20:05:34.465Z,84.48
2023-02-03T20:08:01.064Z,83.39
2023-02-03T20:10:28.468Z,83.10
2023-02-03T20:12:55.459Z,82.79
2023-02-03T20:15:22.261Z,82.66
2023-02-03T20:17:49.131Z,82.81
2023-02-03T20:20:27.037Z,82.30
2023-02-03T20:22:53.528Z,81.92
2023-02-03T20:25:20.148Z,82.34
2023-02-03T20:27:47.040Z,82.25
2023-02-03T20:30:13.881Z,82.00
2023-02-03T20:32:40.421Z,81.64
2023-02-03T20:35:07.305Z,81.91
2023-02-03T20:37:35.981Z,81.27
2023-02-03T20:40:06.315Z,81.29
2023-02-03T20:42:34.004Z,81.11
2023-02-03T20:45:00.704Z,81.22
2023-02-03T20:47:27.159Z,81.24
2023-02-03T20:49:53.643Z,80.91
2023-02-03T20:52:20.868Z,81.19
2023-02-03T20:54:47.971Z,81.55
2023-02-03T20:57:19.373Z,81.33
2023-02-03T20:59:46.363Z,81.32
2023-02-03T21:02:57.492Z,81.03
2023-02-03T21:05:26.571Z,81.66
2023-02-03T21:07:53.461Z,81.39
2023-02-03T21:10:24.608Z,81.67
2023-02-03T21:12:51.989Z,80.71
2023-02-03T21:15:29.040Z,81.08
2023-02-03T21:17:55.866Z,81.06
2023-02-03T21:20:32.030Z,80.36
2023-02-03T21:22:58.651Z,79.83
2023-02-03T21:25:28.695Z,79.72
2023-02-03T21:27:58.152Z,80.37
2023-02-03T21:30:32.893Z,80.91
2023-02-03T21:33:13.558Z,80.22
2023-02-03T21:35:40.090Z,80.41
2023-02-03T21:38:39.297Z,80.04
2023-02-03T21:41:16.172Z,80.16
2023-02-03T21:43:43.789Z,79.59
2023-02-03T21:46:26.473Z,80.13
2023-02-03T21:49:01.091Z,79.63
2023-02-03T21:51:30.916Z,79.53
2023-02-03T21:54:00.607Z,79.09
2023-02-03T21:56:41.853Z,79.07
2023-02-03T21:59:21.207Z,78.87
2023-02-03T22:01:47.998Z,78.90
2023-02-03T22:04:14.725Z,79.15
2023-02-03T22:06:41.101Z,78.64
2023-02-03T22:09:12.249Z,78.97
2023-02-03T22:11:38.718Z,79.07
2023-02-03T22:14:05.184Z,79.01
2023-02-03T22:16:31.713Z,79.09
2023-02-03T22:18:58.214Z,79.13
2023-02-03T22:21:25.587Z,79.61
2023-02-03T22:23:52.083Z,79.26
2023-02-03T22:26:19.264Z,79.81
2023-02-03T22:28:46.284Z,80.17
2023-02-03T22:31:13.330Z,80.15
2023-02-03T22:33:41.104Z,79.99
2023-02-03T22:36:08.808Z,78.91
2023-02-03T22:38:35.386Z,78.74
2023-02-03T22:41:01.849Z,79.53
2023-02-03T22:43:30.868Z,79.00
2023-02-03T22:45:58.132Z,79.03
2023-02-03T22:48:24.699Z,79.61
2023-02-03T22:50:51.104Z,79.24
2023-02-03T22:53:17.617Z,78.42
2023-02-03T22:55:44.087Z,78.00
2023-02-03T22:58:10.641Z,78.26
2023-02-03T23:00:37.189Z,78.13
2023-02-03T23:03:04.969Z,79.32
2023-02-03T23:05:31.598Z,77.94
2023-02-03T23:07:58.085Z,77.22
2023-02-03T23:10:30.634Z,77.73
2023-02-03T23:13:00.860Z,78.31
2023-02-03T23:15:28.070Z,77.85
2023-02-03T23:17:54.595Z,77.83
2023-02-03T23:20:21.072Z,77.02
2023-02-03T23:22:48.153Z,77.00
2023-02-03T23:25:14.957Z,76.51
2023-02-03T23:27:41.749Z,76.39
2023-02-03T23:30:08.907Z,76.20
2023-02-03T23:32:35.371Z,76.38
2023-02-03T23:35:20.667Z,76.53
2023-02-03T23:37:47.103Z,75.57
2023-02-03T23:40:13.692Z,75.90
2023-02-03T23:42:40.302Z,76.30
2023-02-03T23:45:09.703Z,75.51
2023-02-03T23:47:36.156Z,75.60
2023-02-03T23:50:02.745Z,75.52
2023-02-03T23:52:35.516Z,76.00
2023-02-03T23:55:04.728Z,75.99
2023-02-03T23:57:31.296Z,75.72
2023-02-03T23:59:57.748Z,75.85
